sensor_id;sensor_type;location;lat;lon;timestamp;P1;durP1;ratioP1;P2;durP2;ratioP2
51382;SDS011;37475;43.358;1.248;2022-08-03T00:00:48;6.82;;;1.50;;
51382;SDS011;37475;43.358;1.248;2022-08-03T00:03:14;3.67;;;1.60;;
51382;SDS011;37475;43.358;1.248;2022-08-03T00:05:40;6.68;;;1.85;;
51382;SDS011;37475;43.358;1.248;2022-08-03T00:08:06;4.00;;;1.63;;
51382;SDS011;37475;43.358;1.248;2022-08-03T00:10:32;5.35;;;1.58;;
51382;SDS011;37475;43.358;1.248;2022-08-03T00:12:58;3.35;;;1.50;;
51382;SDS011;37475;43.358;1.248;2022-08-03T00:15:23;4.72;;;2.08;;
51382;SDS011;37475;43.358;1.248;2022-08-03T00:17:49;5.10;;;1.70;;
51382;SDS011;37475;43.358;1.248;2022-08-03T00:20:15;5.70;;;1.40;;
51382;SDS011;37475;43.358;1.248;2022-08-03T00:22:41;3.80;;;1.70;;
51382;SDS011;37475;43.358;1.248;2022-08-03T00:25:07;4.13;;;1.67;;
51382;SDS011;37475;43.358;1.248;2022-08-03T00:27:32;4.20;;;1.45;;
51382;SDS011;37475;43.358;1.248;2022-08-03T00:29:58;3.97;;;1.70;;
51382;SDS011;37475;43.358;1.248;2022-08-03T00:32:24;3.85;;;1.60;;
51382;SDS011;37475;43.358;1.248;2022-08-03T00:34:50;3.50;;;1.45;;
51382;SDS011;37475;43.358;1.248;2022-08-03T00:37:16;5.75;;;1.70;;
51382;SDS011;37475;43.358;1.248;2022-08-03T00:39:41;3.72;;;1.50;;
51382;SDS011;37475;43.358;1.248;2022-08-03T00:42:09;3.65;;;1.60;;
51382;SDS011;37475;43.358;1.248;2022-08-03T00:44:39;4.57;;;1.55;;
51382;SDS011;37475;43.358;1.248;2022-08-03T00:47:06;4.70;;;1.45;;
51382;SDS011;37475;43.358;1.248;2022-08-03T00:49:34;3.78;;;1.50;;
51382;SDS011;37475;43.358;1.248;2022-08-03T00:52:01;3.55;;;1.40;;
51382;SDS011;37475;43.358;1.248;2022-08-03T00:54:28;5.88;;;1.50;;
51382;SDS011;37475;43.358;1.248;2022-08-03T00:56:54;4.38;;;1.50;;
51382;SDS011;37475;43.358;1.248;2022-08-03T00:59:20;4.57;;;1.50;;
51382;SDS011;37475;43.358;1.248;2022-08-03T01:01:47;3.42;;;1.55;;
51382;SDS011;37475;43.358;1.248;2022-08-03T01:04:13;3.28;;;1.63;;
51382;SDS011;37475;43.358;1.248;2022-08-03T01:06:49;2.80;;;1.52;;
51382;SDS011;37475;43.358;1.248;2022-08-03T01:09:40;3.67;;;1.63;;
51382;SDS011;37475;43.358;1.248;2022-08-03T01:12:31;4.35;;;1.50;;
51382;SDS011;37475;43.358;1.248;2022-08-03T01:17:48;2.90;;;1.50;;
51382;SDS011;37475;43.358;1.248;2022-08-03T01:20:21;5.90;;;1.65;;
51382;SDS011;37475;43.358;1.248;2022-08-03T01:25:39;4.47;;;1.63;;
51382;SDS011;37475;43.358;1.248;2022-08-03T01:31:32;5.43;;;1.70;;
51382;SDS011;37475;43.358;1.248;2022-08-03T01:34:06;4.00;;;1.60;;
51382;SDS011;37475;43.358;1.248;2022-08-03T01:36:42;3.53;;;1.60;;
51382;SDS011;37475;43.358;1.248;2022-08-03T01:39:13;5.55;;;1.60;;
51382;SDS011;37475;43.358;1.248;2022-08-03T01:41:52;4.57;;;1.65;;
51382;SDS011;37475;43.358;1.248;2022-08-03T01:44:23;3.38;;;1.50;;
51382;SDS011;37475;43.358;1.248;2022-08-03T01:46:54;3.70;;;1.50;;
51382;SDS011;37475;43.358;1.248;2022-08-03T01:49:23;6.97;;;1.63;;
51382;SDS011;37475;43.358;1.248;2022-08-03T01:51:51;3.55;;;1.60;;
51382;SDS011;37475;43.358;1.248;2022-08-03T01:54:19;4.55;;;1.70;;
51382;SDS011;37475;43.358;1.248;2022-08-03T01:56:48;4.05;;;1.67;;
51382;SDS011;37475;43.358;1.248;2022-08-03T01:59:16;5.32;;;1.60;;
51382;SDS011;37475;43.358;1.248;2022-08-03T02:01:44;2.65;;;1.50;;
51382;SDS011;37475;43.358;1.248;2022-08-03T02:04:14;4.07;;;1.60;;
51382;SDS011;37475;43.358;1.248;2022-08-03T02:06:42;4.18;;;1.60;;
51382;SDS011;37475;43.358;1.248;2022-08-03T02:09:11;4.63;;;1.58;;
51382;SDS011;37475;43.358;1.248;2022-08-03T02:11:39;3.80;;;1.50;;
51382;SDS011;37475;43.358;1.248;2022-08-03T02:14:06;6.22;;;1.85;;
51382;SDS011;37475;43.358;1.248;2022-08-03T02:16:33;4.05;;;1.70;;
51382;SDS011;37475;43.358;1.248;2022-08-03T02:19:01;4.70;;;1.60;;
51382;SDS011;37475;43.358;1.248;2022-08-03T02:21:35;5.03;;;1.70;;
51382;SDS011;37475;43.358;1.248;2022-08-03T02:24:02;4.80;;;1.80;;
51382;SDS011;37475;43.358;1.248;2022-08-03T02:26:29;4.85;;;1.70;;
51382;SDS011;37475;43.358;1.248;2022-08-03T02:29:01;4.35;;;1.65;;
51382;SDS011;37475;43.358;1.248;2022-08-03T02:31:32;3.25;;;1.70;;
51382;SDS011;37475;43.358;1.248;2022-08-03T02:34:02;4.25;;;1.77;;
51382;SDS011;37475;43.358;1.248;2022-08-03T02:36:35;4.32;;;1.60;;
51382;SDS011;37475;43.358;1.248;2022-08-03T02:39:03;4.05;;;1.60;;
51382;SDS011;37475;43.358;1.248;2022-08-03T02:41:34;4.00;;;1.65;;
51382;SDS011;37475;43.358;1.248;2022-08-03T02:44:08;5.63;;;2.03;;
51382;SDS011;37475;43.358;1.248;2022-08-03T02:46:38;5.10;;;2.03;;
51382;SDS011;37475;43.358;1.248;2022-08-03T02:49:08;3.17;;;1.70;;
51382;SDS011;37475;43.358;1.248;2022-08-03T02:51:37;6.35;;;1.80;;
51382;SDS011;37475;43.358;1.248;2022-08-03T02:54:05;5.65;;;2.05;;
51382;SDS011;37475;43.358;1.248;2022-08-03T02:56:33;5.22;;;1.90;;
51382;SDS011;37475;43.358;1.248;2022-08-03T02:59:01;2.88;;;1.60;;
51382;SDS011;37475;43.358;1.248;2022-08-03T03:01:28;5.60;;;2.00;;
51382;SDS011;37475;43.358;1.248;2022-08-03T03:03:55;3.80;;;1.60;;
51382;SDS011;37475;43.358;1.248;2022-08-03T03:06:25;5.32;;;1.42;;
51382;SDS011;37475;43.358;1.248;2022-08-03T03:08:52;3.65;;;1.83;;
51382;SDS011;37475;43.358;1.248;2022-08-03T03:11:20;3.20;;;1.70;;
51382;SDS011;37475;43.358;1.248;2022-08-03T03:13:47;4.75;;;1.80;;
51382;SDS011;37475;43.358;1.248;2022-08-03T03:16:15;2.85;;;1.60;;
51382;SDS011;37475;43.358;1.248;2022-08-03T03:18:43;3.17;;;1.50;;
51382;SDS011;37475;43.358;1.248;2022-08-03T03:21:10;4.80;;;1.50;;
51382;SDS011;37475;43.358;1.248;2022-08-03T03:23:37;2.88;;;1.70;;
51382;SDS011;37475;43.358;1.248;2022-08-03T03:26:05;4.72;;;1.80;;
51382;SDS011;37475;43.358;1.248;2022-08-03T03:28:32;4.10;;;1.70;;
51382;SDS011;37475;43.358;1.248;2022-08-03T03:31:01;5.22;;;1.55;;
51382;SDS011;37475;43.358;1.248;2022-08-03T03:33:28;4.15;;;1.70;;
51382;SDS011;37475;43.358;1.248;2022-08-03T03:35:54;3.60;;;1.58;;
51382;SDS011;37475;43.358;1.248;2022-08-03T03:38:22;4.10;;;1.90;;
51382;SDS011;37475;43.358;1.248;2022-08-03T03:40:47;3.25;;;1.70;;
51382;SDS011;37475;43.358;1.248;2022-08-03T03:43:14;3.42;;;1.73;;
51382;SDS011;37475;43.358;1.248;2022-08-03T03:45:40;3.85;;;1.70;;
51382;SDS011;37475;43.358;1.248;2022-08-03T03:48:07;3.20;;;1.52;;
51382;SDS011;37475;43.358;1.248;2022-08-03T03:50:34;3.92;;;1.77;;
51382;SDS011;37475;43.358;1.248;2022-08-03T03:53:02;4.72;;;1.90;;
51382;SDS011;37475;43.358;1.248;2022-08-03T03:55:28;8.80;;;2.17;;
51382;SDS011;37475;43.358;1.248;2022-08-03T03:57:55;4.63;;;1.77;;
51382;SDS011;37475;43.358;1.248;2022-08-03T04:00:21;3.33;;;1.88;;
51382;SDS011;37475;43.358;1.248;2022-08-03T04:02:47;3.80;;;1.90;;
51382;SDS011;37475;43.358;1.248;2022-08-03T04:05:13;4.35;;;1.80;;
51382;SDS011;37475;43.358;1.248;2022-08-03T04:08:08;4.35;;;1.90;;
51382;SDS011;37475;43.358;1.248;2022-08-03T04:11:02;8.23;;;1.85;;
51382;SDS011;37475;43.358;1.248;2022-08-03T04:16:39;3.42;;;1.80;;
51382;SDS011;37475;43.358;1.248;2022-08-03T04:19:10;3.17;;;1.75;;
51382;SDS011;37475;43.358;1.248;2022-08-03T04:21:42;6.53;;;2.10;;
51382;SDS011;37475;43.358;1.248;2022-08-03T04:24:11;4.70;;;2.00;;
51382;SDS011;37475;43.358;1.248;2022-08-03T04:26:39;6.82;;;1.95;;
51382;SDS011;37475;43.358;1.248;2022-08-03T04:29:08;5.38;;;1.80;;
51382;SDS011;37475;43.358;1.248;2022-08-03T04:31:36;5.47;;;2.10;;
51382;SDS011;37475;43.358;1.248;2022-08-03T04:34:04;4.93;;;1.90;;
51382;SDS011;37475;43.358;1.248;2022-08-03T04:36:30;4.20;;;2.17;;
51382;SDS011;37475;43.358;1.248;2022-08-03T04:39:07;4.25;;;2.10;;
51382;SDS011;37475;43.358;1.248;2022-08-03T04:41:39;4.68;;;1.90;;
51382;SDS011;37475;43.358;1.248;2022-08-03T04:44:06;4.30;;;2.00;;
51382;SDS011;37475;43.358;1.248;2022-08-03T04:46:34;6.35;;;2.00;;
51382;SDS011;37475;43.358;1.248;2022-08-03T04:49:03;3.97;;;2.13;;
51382;SDS011;37475;43.358;1.248;2022-08-03T04:51:31;5.25;;;2.33;;
51382;SDS011;37475;43.358;1.248;2022-08-03T04:53:58;5.85;;;1.90;;
51382;SDS011;37475;43.358;1.248;2022-08-03T04:56:25;4.43;;;1.95;;
51382;SDS011;37475;43.358;1.248;2022-08-03T04:58:51;4.43;;;2.00;;
51382;SDS011;37475;43.358;1.248;2022-08-03T05:01:18;5.32;;;1.83;;
51382;SDS011;37475;43.358;1.248;2022-08-03T05:03:45;4.43;;;2.15;;
51382;SDS011;37475;43.358;1.248;2022-08-03T05:06:11;4.82;;;2.28;;
51382;SDS011;37475;43.358;1.248;2022-08-03T05:08:37;4.35;;;2.13;;
51382;SDS011;37475;43.358;1.248;2022-08-03T05:11:03;4.57;;;2.05;;
51382;SDS011;37475;43.358;1.248;2022-08-03T05:13:29;6.43;;;2.20;;
51382;SDS011;37475;43.358;1.248;2022-08-03T05:15:55;5.05;;;2.17;;
51382;SDS011;37475;43.358;1.248;2022-08-03T05:18:21;7.10;;;2.47;;
51382;SDS011;37475;43.358;1.248;2022-08-03T05:20:47;9.25;;;2.08;;
51382;SDS011;37475;43.358;1.248;2022-08-03T05:23:13;7.05;;;2.30;;
51382;SDS011;37475;43.358;1.248;2022-08-03T05:25:39;10.98;;;2.38;;
51382;SDS011;37475;43.358;1.248;2022-08-03T05:28:05;9.05;;;2.20;;
51382;SDS011;37475;43.358;1.248;2022-08-03T05:30:31;4.18;;;2.10;;
51382;SDS011;37475;43.358;1.248;2022-08-03T05:32:56;5.75;;;2.40;;
51382;SDS011;37475;43.358;1.248;2022-08-03T05:35:23;7.90;;;2.13;;
51382;SDS011;37475;43.358;1.248;2022-08-03T05:37:50;4.30;;;2.13;;
51382;SDS011;37475;43.358;1.248;2022-08-03T05:40:16;5.65;;;2.15;;
51382;SDS011;37475;43.358;1.248;2022-08-03T05:42:42;5.18;;;2.13;;
51382;SDS011;37475;43.358;1.248;2022-08-03T05:45:08;4.78;;;2.10;;
51382;SDS011;37475;43.358;1.248;2022-08-03T05:47:42;4.75;;;2.00;;
51382;SDS011;37475;43.358;1.248;2022-08-03T05:50:10;4.45;;;1.90;;
51382;SDS011;37475;43.358;1.248;2022-08-03T05:52:37;4.80;;;1.90;;
51382;SDS011;37475;43.358;1.248;2022-08-03T05:55:05;7.55;;;2.22;;
51382;SDS011;37475;43.358;1.248;2022-08-03T05:57:31;4.22;;;2.08;;
51382;SDS011;37475;43.358;1.248;2022-08-03T05:59:57;4.85;;;2.00;;
51382;SDS011;37475;43.358;1.248;2022-08-03T06:02:24;4.80;;;2.30;;
51382;SDS011;37475;43.358;1.248;2022-08-03T06:04:51;6.43;;;2.25;;
51382;SDS011;37475;43.358;1.248;2022-08-03T06:07:17;7.10;;;2.53;;
51382;SDS011;37475;43.358;1.248;2022-08-03T06:09:42;12.43;;;2.55;;
51382;SDS011;37475;43.358;1.248;2022-08-03T06:12:08;13.95;;;2.38;;
51382;SDS011;37475;43.358;1.248;2022-08-03T06:14:34;15.32;;;3.10;;
51382;SDS011;37475;43.358;1.248;2022-08-03T06:17:00;11.50;;;2.67;;
51382;SDS011;37475;43.358;1.248;2022-08-03T06:19:25;9.90;;;2.47;;
51382;SDS011;37475;43.358;1.248;2022-08-03T06:21:51;8.02;;;2.60;;
51382;SDS011;37475;43.358;1.248;2022-08-03T06:24:17;10.88;;;3.08;;
51382;SDS011;37475;43.358;1.248;2022-08-03T06:26:43;11.93;;;2.78;;
51382;SDS011;37475;43.358;1.248;2022-08-03T06:29:09;7.53;;;2.58;;
51382;SDS011;37475;43.358;1.248;2022-08-03T06:31:34;7.90;;;2.67;;
51382;SDS011;37475;43.358;1.248;2022-08-03T06:34:01;7.35;;;2.60;;
51382;SDS011;37475;43.358;1.248;2022-08-03T06:36:28;6.57;;;2.53;;
51382;SDS011;37475;43.358;1.248;2022-08-03T06:38:55;5.65;;;2.55;;
51382;SDS011;37475;43.358;1.248;2022-08-03T06:41:23;5.93;;;2.33;;
51382;SDS011;37475;43.358;1.248;2022-08-03T06:43:49;10.07;;;2.70;;
51382;SDS011;37475;43.358;1.248;2022-08-03T06:46:15;4.90;;;2.10;;
51382;SDS011;37475;43.358;1.248;2022-08-03T06:48:41;9.98;;;2.53;;
51382;SDS011;37475;43.358;1.248;2022-08-03T06:51:07;8.77;;;2.20;;
51382;SDS011;37475;43.358;1.248;2022-08-03T06:53:34;4.70;;;2.20;;
51382;SDS011;37475;43.358;1.248;2022-08-03T06:56:00;4.72;;;2.20;;
51382;SDS011;37475;43.358;1.248;2022-08-03T06:58:26;5.30;;;2.20;;
51382;SDS011;37475;43.358;1.248;2022-08-03T07:00:52;4.03;;;2.25;;
51382;SDS011;37475;43.358;1.248;2022-08-03T07:03:18;5.10;;;2.00;;
51382;SDS011;37475;43.358;1.248;2022-08-03T07:05:43;4.38;;;2.10;;
51382;SDS011;37475;43.358;1.248;2022-08-03T07:08:13;6.95;;;2.53;;
51382;SDS011;37475;43.358;1.248;2022-08-03T07:10:39;5.03;;;2.08;;
51382;SDS011;37475;43.358;1.248;2022-08-03T07:13:05;3.88;;;1.85;;
51382;SDS011;37475;43.358;1.248;2022-08-03T07:15:31;5.85;;;2.20;;
51382;SDS011;37475;43.358;1.248;2022-08-03T07:17:57;5.22;;;2.30;;
51382;SDS011;37475;43.358;1.248;2022-08-03T07:20:23;6.70;;;2.40;;
51382;SDS011;37475;43.358;1.248;2022-08-03T07:22:49;7.53;;;2.20;;
51382;SDS011;37475;43.358;1.248;2022-08-03T07:25:14;9.02;;;2.25;;
51382;SDS011;37475;43.358;1.248;2022-08-03T07:27:44;3.63;;;1.90;;
51382;SDS011;37475;43.358;1.248;2022-08-03T07:30:10;7.82;;;2.15;;
51382;SDS011;37475;43.358;1.248;2022-08-03T07:32:37;5.68;;;2.15;;
51382;SDS011;37475;43.358;1.248;2022-08-03T07:35:03;5.05;;;2.20;;
51382;SDS011;37475;43.358;1.248;2022-08-03T07:37:31;5.07;;;2.17;;
51382;SDS011;37475;43.358;1.248;2022-08-03T07:39:58;4.05;;;2.40;;
51382;SDS011;37475;43.358;1.248;2022-08-03T07:42:25;7.30;;;2.53;;
51382;SDS011;37475;43.358;1.248;2022-08-03T07:44:54;6.45;;;2.10;;
51382;SDS011;37475;43.358;1.248;2022-08-03T07:47:25;8.40;;;2.10;;
51382;SDS011;37475;43.358;1.248;2022-08-03T07:49:53;6.25;;;2.22;;
51382;SDS011;37475;43.358;1.248;2022-08-03T07:52:20;4.65;;;2.38;;
51382;SDS011;37475;43.358;1.248;2022-08-03T07:55:05;5.90;;;2.45;;
51382;SDS011;37475;43.358;1.248;2022-08-03T07:57:32;4.45;;;2.38;;
51382;SDS011;37475;43.358;1.248;2022-08-03T07:59:58;7.18;;;2.50;;
51382;SDS011;37475;43.358;1.248;2022-08-03T08:02:24;5.07;;;2.28;;
51382;SDS011;37475;43.358;1.248;2022-08-03T08:04:50;4.90;;;2.28;;
51382;SDS011;37475;43.358;1.248;2022-08-03T08:07:15;7.10;;;2.50;;
51382;SDS011;37475;43.358;1.248;2022-08-03T08:09:41;7.45;;;2.88;;
51382;SDS011;37475;43.358;1.248;2022-08-03T08:12:07;9.45;;;2.78;;
51382;SDS011;37475;43.358;1.248;2022-08-03T08:14:34;6.28;;;2.78;;
51382;SDS011;37475;43.358;1.248;2022-08-03T08:17:00;8.55;;;3.17;;
51382;SDS011;37475;43.358;1.248;2022-08-03T08:19:26;5.85;;;2.90;;
51382;SDS011;37475;43.358;1.248;2022-08-03T08:21:52;7.05;;;2.97;;
51382;SDS011;37475;43.358;1.248;2022-08-03T08:24:18;5.53;;;3.30;;
51382;SDS011;37475;43.358;1.248;2022-08-03T08:26:43;5.95;;;2.97;;
51382;SDS011;37475;43.358;1.248;2022-08-03T08:29:09;9.68;;;3.03;;
51382;SDS011;37475;43.358;1.248;2022-08-03T08:31:35;5.32;;;2.92;;
51382;SDS011;37475;43.358;1.248;2022-08-03T08:34:01;7.95;;;3.10;;
51382;SDS011;37475;43.358;1.248;2022-08-03T08:36:30;5.97;;;2.92;;
51382;SDS011;37475;43.358;1.248;2022-08-03T08:38:59;13.23;;;3.00;;
51382;SDS011;37475;43.358;1.248;2022-08-03T08:41:26;6.50;;;2.92;;
51382;SDS011;37475;43.358;1.248;2022-08-03T08:43:53;5.70;;;2.90;;
51382;SDS011;37475;43.358;1.248;2022-08-03T08:46:19;7.13;;;2.83;;
51382;SDS011;37475;43.358;1.248;2022-08-03T08:48:45;7.30;;;2.97;;
51382;SDS011;37475;43.358;1.248;2022-08-03T08:51:13;5.95;;;2.75;;
51382;SDS011;37475;43.358;1.248;2022-08-03T08:53:44;5.38;;;2.90;;
51382;SDS011;37475;43.358;1.248;2022-08-03T08:56:15;6.17;;;2.90;;
51382;SDS011;37475;43.358;1.248;2022-08-03T08:58:46;3.83;;;2.50;;
51382;SDS011;37475;43.358;1.248;2022-08-03T09:01:17;6.82;;;2.80;;
51382;SDS011;37475;43.358;1.248;2022-08-03T09:03:44;7.72;;;2.85;;
51382;SDS011;37475;43.358;1.248;2022-08-03T09:06:11;7.78;;;3.00;;
51382;SDS011;37475;43.358;1.248;2022-08-03T09:08:37;6.00;;;2.53;;
51382;SDS011;37475;43.358;1.248;2022-08-03T09:11:03;7.55;;;2.75;;
51382;SDS011;37475;43.358;1.248;2022-08-03T09:13:29;5.53;;;2.85;;
51382;SDS011;37475;43.358;1.248;2022-08-03T09:18:46;7.60;;;2.92;;
51382;SDS011;37475;43.358;1.248;2022-08-03T09:23:54;9.90;;;3.00;;
51382;SDS011;37475;43.358;1.248;2022-08-03T09:26:26;9.02;;;2.90;;
51382;SDS011;37475;43.358;1.248;2022-08-03T09:28:54;6.22;;;2.75;;
51382;SDS011;37475;43.358;1.248;2022-08-03T09:31:29;8.18;;;2.75;;
51382;SDS011;37475;43.358;1.248;2022-08-03T09:34:09;7.30;;;2.78;;
51382;SDS011;37475;43.358;1.248;2022-08-03T09:36:49;6.93;;;2.63;;
51382;SDS011;37475;43.358;1.248;2022-08-03T09:39:17;5.15;;;2.40;;
51382;SDS011;37475;43.358;1.248;2022-08-03T09:41:46;7.43;;;2.67;;
51382;SDS011;37475;43.358;1.248;2022-08-03T09:44:35;9.32;;;2.70;;
51382;SDS011;37475;43.358;1.248;2022-08-03T09:47:06;6.82;;;2.80;;
51382;SDS011;37475;43.358;1.248;2022-08-03T09:49:38;5.97;;;2.47;;
51382;SDS011;37475;43.358;1.248;2022-08-03T09:52:12;6.43;;;2.65;;
51382;SDS011;37475;43.358;1.248;2022-08-03T09:54:55;3.55;;;2.15;;
51382;SDS011;37475;43.358;1.248;2022-08-03T09:57:25;6.18;;;2.70;;
51382;SDS011;37475;43.358;1.248;2022-08-03T09:59:52;6.28;;;2.40;;
51382;SDS011;37475;43.358;1.248;2022-08-03T10:02:22;6.95;;;2.40;;
51382;SDS011;37475;43.358;1.248;2022-08-03T10:04:51;5.75;;;2.50;;
51382;SDS011;37475;43.358;1.248;2022-08-03T10:07:19;6.28;;;2.90;;
51382;SDS011;37475;43.358;1.248;2022-08-03T10:09:55;5.40;;;3.03;;
51382;SDS011;37475;43.358;1.248;2022-08-03T10:12:26;5.10;;;2.33;;
51382;SDS011;37475;43.358;1.248;2022-08-03T10:14:53;4.90;;;2.17;;
51382;SDS011;37475;43.358;1.248;2022-08-03T10:17:20;3.42;;;2.25;;
51382;SDS011;37475;43.358;1.248;2022-08-03T10:19:47;4.60;;;2.35;;
51382;SDS011;37475;43.358;1.248;2022-08-03T10:22:25;6.97;;;2.42;;
51382;SDS011;37475;43.358;1.248;2022-08-03T10:27:30;6.00;;;2.13;;
51382;SDS011;37475;43.358;1.248;2022-08-03T10:30:00;9.17;;;2.40;;
51382;SDS011;37475;43.358;1.248;2022-08-03T10:35:21;5.07;;;2.17;;
51382;SDS011;37475;43.358;1.248;2022-08-03T10:40:37;3.65;;;2.10;;
51382;SDS011;37475;43.358;1.248;2022-08-03T10:43:20;5.53;;;2.10;;
51382;SDS011;37475;43.358;1.248;2022-08-03T10:45:52;5.90;;;2.08;;
51382;SDS011;37475;43.358;1.248;2022-08-03T10:48:20;3.47;;;1.83;;
51382;SDS011;37475;43.358;1.248;2022-08-03T10:50:47;6.10;;;2.60;;
51382;SDS011;37475;43.358;1.248;2022-08-03T10:53:14;6.13;;;2.40;;
51382;SDS011;37475;43.358;1.248;2022-08-03T10:55:41;5.10;;;2.10;;
51382;SDS011;37475;43.358;1.248;2022-08-03T10:58:49;4.82;;;2.00;;
51382;SDS011;37475;43.358;1.248;2022-08-03T11:01:15;4.80;;;2.10;;
51382;SDS011;37475;43.358;1.248;2022-08-03T11:06:24;5.18;;;1.77;;
51382;SDS011;37475;43.358;1.248;2022-08-03T11:11:37;5.95;;;2.10;;
51382;SDS011;37475;43.358;1.248;2022-08-03T11:14:13;5.25;;;1.80;;
51382;SDS011;37475;43.358;1.248;2022-08-03T11:16:48;5.80;;;1.95;;
51382;SDS011;37475;43.358;1.248;2022-08-03T11:19:21;4.15;;;1.80;;
51382;SDS011;37475;43.358;1.248;2022-08-03T11:38:25;3.47;;;1.50;;
51382;SDS011;37475;43.358;1.248;2022-08-03T11:40:51;9.32;;;2.10;;
51382;SDS011;37475;43.358;1.248;2022-08-03T11:46:00;5.60;;;1.60;;
51382;SDS011;37475;43.358;1.248;2022-08-03T11:50:59;6.65;;;1.52;;
51382;SDS011;37475;43.358;1.248;2022-08-03T11:53:30;2.85;;;1.40;;
51382;SDS011;37475;43.358;1.248;2022-08-03T11:56:00;3.42;;;1.30;;
51382;SDS011;37475;43.358;1.248;2022-08-03T11:58:27;4.40;;;1.30;;
51382;SDS011;37475;43.358;1.248;2022-08-03T12:01:03;3.63;;;1.40;;
51382;SDS011;37475;43.358;1.248;2022-08-03T12:03:31;4.03;;;1.30;;
51382;SDS011;37475;43.358;1.248;2022-08-03T12:05:58;4.60;;;1.20;;
51382;SDS011;37475;43.358;1.248;2022-08-03T12:10:52;2.85;;;1.00;;
51382;SDS011;37475;43.358;1.248;2022-08-03T12:13:20;2.75;;;1.20;;
51382;SDS011;37475;43.358;1.248;2022-08-03T12:15:52;3.22;;;1.20;;
51382;SDS011;37475;43.358;1.248;2022-08-03T12:18:20;4.10;;;1.40;;
51382;SDS011;37475;43.358;1.248;2022-08-03T12:20:48;9.38;;;1.50;;
51382;SDS011;37475;43.358;1.248;2022-08-03T12:23:16;3.00;;;1.10;;
51382;SDS011;37475;43.358;1.248;2022-08-03T12:25:43;24.98;;;2.47;;
51382;SDS011;37475;43.358;1.248;2022-08-03T12:28:16;3.30;;;1.20;;
51382;SDS011;37475;43.358;1.248;2022-08-03T12:30:48;5.65;;;1.17;;
51382;SDS011;37475;43.358;1.248;2022-08-03T12:36:01;1.77;;;1.10;;
51382;SDS011;37475;43.358;1.248;2022-08-03T12:38:31;3.10;;;1.40;;
51382;SDS011;37475;43.358;1.248;2022-08-03T12:41:01;5.47;;;1.10;;
51382;SDS011;37475;43.358;1.248;2022-08-03T12:43:32;4.03;;;1.20;;
51382;SDS011;37475;43.358;1.248;2022-08-03T12:46:09;2.47;;;1.20;;
51382;SDS011;37475;43.358;1.248;2022-08-03T12:51:33;4.93;;;1.30;;
51382;SDS011;37475;43.358;1.248;2022-08-03T12:54:24;3.80;;;1.30;;
51382;SDS011;37475;43.358;1.248;2022-08-03T12:57:06;2.50;;;1.40;;
51382;SDS011;37475;43.358;1.248;2022-08-03T12:59:37;5.38;;;1.75;;
51382;SDS011;37475;43.358;1.248;2022-08-03T13:04:51;5.00;;;1.40;;
51382;SDS011;37475;43.358;1.248;2022-08-03T13:07:19;2.83;;;1.40;;
51382;SDS011;37475;43.358;1.248;2022-08-03T13:09:46;3.67;;;1.48;;
51382;SDS011;37475;43.358;1.248;2022-08-03T13:12:15;2.85;;;1.58;;
51382;SDS011;37475;43.358;1.248;2022-08-03T13:14:51;3.60;;;1.42;;
51382;SDS011;37475;43.358;1.248;2022-08-03T13:17:20;7.10;;;1.45;;
51382;SDS011;37475;43.358;1.248;2022-08-03T13:19:46;3.53;;;1.40;;
51382;SDS011;37475;43.358;1.248;2022-08-03T13:22:14;5.15;;;1.40;;
51382;SDS011;37475;43.358;1.248;2022-08-03T13:24:43;11.65;;;1.70;;
51382;SDS011;37475;43.358;1.248;2022-08-03T13:27:10;2.65;;;1.40;;
51382;SDS011;37475;43.358;1.248;2022-08-03T13:29:37;3.45;;;1.77;;
51382;SDS011;37475;43.358;1.248;2022-08-03T13:32:03;2.97;;;1.55;;
51382;SDS011;37475;43.358;1.248;2022-08-03T13:34:30;3.92;;;1.30;;
51382;SDS011;37475;43.358;1.248;2022-08-03T13:36:56;7.07;;;1.60;;
51382;SDS011;37475;43.358;1.248;2022-08-03T13:39:22;3.65;;;1.40;;
51382;SDS011;37475;43.358;1.248;2022-08-03T13:41:48;5.13;;;1.40;;
51382;SDS011;37475;43.358;1.248;2022-08-03T13:44:14;2.97;;;1.58;;
51382;SDS011;37475;43.358;1.248;2022-08-03T13:46:40;2.80;;;1.40;;
51382;SDS011;37475;43.358;1.248;2022-08-03T13:49:06;2.08;;;1.40;;
51382;SDS011;37475;43.358;1.248;2022-08-03T13:51:33;3.20;;;1.50;;
51382;SDS011;37475;43.358;1.248;2022-08-03T13:54:00;2.72;;;1.40;;
51382;SDS011;37475;43.358;1.248;2022-08-03T13:56:26;5.38;;;1.30;;
51382;SDS011;37475;43.358;1.248;2022-08-03T13:58:53;2.08;;;1.30;;
51382;SDS011;37475;43.358;1.248;2022-08-03T14:01:19;4.00;;;1.40;;
51382;SDS011;37475;43.358;1.248;2022-08-03T14:03:46;3.67;;;1.45;;
51382;SDS011;37475;43.358;1.248;2022-08-03T14:06:14;3.20;;;1.55;;
51382;SDS011;37475;43.358;1.248;2022-08-03T14:08:40;4.25;;;1.42;;
51382;SDS011;37475;43.358;1.248;2022-08-03T14:11:07;4.05;;;1.50;;
51382;SDS011;37475;43.358;1.248;2022-08-03T14:13:32;4.53;;;1.90;;
51382;SDS011;37475;43.358;1.248;2022-08-03T14:15:58;4.10;;;1.40;;
51382;SDS011;37475;43.358;1.248;2022-08-03T14:18:24;2.63;;;1.67;;
51382;SDS011;37475;43.358;1.248;2022-08-03T14:20:50;5.65;;;1.80;;
51382;SDS011;37475;43.358;1.248;2022-08-03T14:23:16;6.10;;;1.50;;
51382;SDS011;37475;43.358;1.248;2022-08-03T14:25:42;3.05;;;1.60;;
51382;SDS011;37475;43.358;1.248;2022-08-03T14:28:08;4.28;;;1.80;;
51382;SDS011;37475;43.358;1.248;2022-08-03T14:30:33;3.75;;;1.50;;
51382;SDS011;37475;43.358;1.248;2022-08-03T14:33:00;5.07;;;1.70;;
51382;SDS011;37475;43.358;1.248;2022-08-03T14:35:26;4.38;;;1.77;;
51382;SDS011;37475;43.358;1.248;2022-08-03T14:37:51;4.40;;;1.70;;
51382;SDS011;37475;43.358;1.248;2022-08-03T14:40:18;4.72;;;1.80;;
51382;SDS011;37475;43.358;1.248;2022-08-03T14:42:44;4.03;;;1.45;;
51382;SDS011;37475;43.358;1.248;2022-08-03T14:45:10;3.78;;;1.63;;
51382;SDS011;37475;43.358;1.248;2022-08-03T14:47:37;3.30;;;1.50;;
51382;SDS011;37475;43.358;1.248;2022-08-03T14:50:04;4.97;;;1.80;;
51382;SDS011;37475;43.358;1.248;2022-08-03T14:52:31;4.72;;;1.80;;
51382;SDS011;37475;43.358;1.248;2022-08-03T14:54:57;3.58;;;1.60;;
51382;SDS011;37475;43.358;1.248;2022-08-03T14:57:24;3.72;;;1.63;;
51382;SDS011;37475;43.358;1.248;2022-08-03T14:59:50;3.45;;;1.50;;
51382;SDS011;37475;43.358;1.248;2022-08-03T15:02:16;4.97;;;1.77;;
51382;SDS011;37475;43.358;1.248;2022-08-03T15:04:43;3.28;;;1.58;;
51382;SDS011;37475;43.358;1.248;2022-08-03T15:07:09;5.93;;;1.85;;
51382;SDS011;37475;43.358;1.248;2022-08-03T15:09:34;4.38;;;1.75;;
51382;SDS011;37475;43.358;1.248;2022-08-03T15:12:02;5.57;;;1.70;;
51382;SDS011;37475;43.358;1.248;2022-08-03T15:14:29;6.10;;;1.90;;
51382;SDS011;37475;43.358;1.248;2022-08-03T15:16:54;2.72;;;1.58;;
51382;SDS011;37475;43.358;1.248;2022-08-03T15:19:20;3.45;;;1.63;;
51382;SDS011;37475;43.358;1.248;2022-08-03T15:21:46;3.15;;;1.60;;
51382;SDS011;37475;43.358;1.248;2022-08-03T15:24:12;5.82;;;1.75;;
51382;SDS011;37475;43.358;1.248;2022-08-03T15:26:38;6.85;;;1.80;;
51382;SDS011;37475;43.358;1.248;2022-08-03T15:29:04;5.00;;;1.80;;
51382;SDS011;37475;43.358;1.248;2022-08-03T15:31:29;2.75;;;1.58;;
51382;SDS011;37475;43.358;1.248;2022-08-03T15:33:55;7.13;;;1.98;;
51382;SDS011;37475;43.358;1.248;2022-08-03T15:36:21;4.82;;;1.80;;
51382;SDS011;37475;43.358;1.248;2022-08-03T15:38:47;3.95;;;1.80;;
51382;SDS011;37475;43.358;1.248;2022-08-03T15:41:13;2.92;;;1.70;;
51382;SDS011;37475;43.358;1.248;2022-08-03T15:43:39;2.63;;;1.63;;
51382;SDS011;37475;43.358;1.248;2022-08-03T15:46:06;3.72;;;1.52;;
51382;SDS011;37475;43.358;1.248;2022-08-03T15:48:32;4.63;;;1.70;;
51382;SDS011;37475;43.358;1.248;2022-08-03T15:50:58;4.40;;;1.60;;
51382;SDS011;37475;43.358;1.248;2022-08-03T15:53:24;6.22;;;1.65;;
51382;SDS011;37475;43.358;1.248;2022-08-03T15:55:50;3.00;;;1.63;;
51382;SDS011;37475;43.358;1.248;2022-08-03T15:58:15;3.72;;;1.88;;